PN69 weather

Altemose Ultralightport
Malvern, Pennsylvania, United States

Public forecast

Using degrees Fahrenheit for public forecast. Weather courtesy of forecast.io.

Closest aviation weather report (METAR) to Altemose Ultralightport

Closest report is Brandywine Regional Airport, 6.9 nm (12.7 km) SSW. Retrieved 2019/12/09 09:35 UTC (20 minutes ago):

KOQN 090935Z AUTO 00000KT 1 3/4SM -RA OVC003 06/05 A3016 RMK AO2 P0001

Closest aviation forecast (TAF) to Altemose Ultralightport

Closest forecast is Philadelphia International Airport, 18.3 nm (33.9 km) SE. Retrieved 2019/12/09 06:39 UTC (3 hours ago):

TAF KPHL 090536Z 0906/1012 VRB03KT 6SM -RADZ OVC018 FM091000 VRB03KT 2SM -RA OVC008 WS020/18035KT FM091600 19008KT 2SM -RA OVC003 WS020/18035KT FM100400 22013G18KT 3SM -SHRA OVC008 FM100700 22012G18KT P6SM OVC025